Time;durP1;ratioP1;P1;durP2;ratioP2;P2;SDS_P1;SDS_P2;PMS_P1;PMS_P2;Temp;Humidity;BMP_temperature;BMP_pressure;BME280_temperature;BME280_humidity;BME280_pressure;Samples;Min_cycle;Max_cycle;Signal;HPM_P1;HPM_P2
2022/06/17 00:00:38;;;;;;;5.47;2.93;;;;;;;;;;4965921;28;1159105;-60
2022/06/17 00:03:04;;;;;;;6.57;3.13;;;;;;;;;;5004916;28;20238;-60
2022/06/17 00:05:29;;;;;;;4.60;3.13;;;;;;;;;;4995363;28;20208;-60
2022/06/17 00:07:55;;;;;;;6.13;3.10;;;;;;;;;;5011839;28;20209;-60
2022/06/17 00:10:21;;;;;;;5.40;2.97;;;;;;;;;;5010287;28;20270;-60
2022/06/17 00:12:47;;;;;;;6.05;2.90;;;;;;;;;;5011102;28;20223;-60
2022/06/17 00:15:12;;;;;;;5.03;3.10;;;;;;;;;;4997609;28;20635;-60
2022/06/17 00:17:37;;;;;;;6.57;3.10;;;;;;;;;;4991343;28;20213;-60
2022/06/17 00:20:05;;;;;;;4.97;2.90;;;;;;;;;;4997991;28;20307;-60
2022/06/17 00:22:30;;;;;;;5.68;3.20;;;;;;;;;;5011252;28;20212;-60
2022/06/17 00:24:55;;;;;;;5.43;2.78;;;;;;;;;;4999741;28;20225;-60
2022/06/17 00:27:20;;;;;;;6.55;3.33;;;;;;;;;;4990901;28;20578;-60
2022/06/17 00:29:46;;;;;;;7.50;2.88;;;;;;;;;;5006677;28;20263;-60
2022/06/17 00:32:11;;;;;;;6.60;3.20;;;;;;;;;;5005908;28;20274;-60
2022/06/17 00:34:36;;;;;;;4.43;2.97;;;;;;;;;;5000875;28;20409;-60
2022/06/17 00:37:02;;;;;;;5.82;3.17;;;;;;;;;;4991183;28;20571;-60
2022/06/17 00:39:28;;;;;;;8.75;3.08;;;;;;;;;;5006283;28;20291;-60
2022/06/17 00:41:54;;;;;;;7.75;3.20;;;;;;;;;;4996191;28;20212;-60
2022/06/17 00:44:20;;;;;;;5.57;3.50;;;;;;;;;;5011831;28;20209;-60
2022/06/17 00:46:54;;;;;;;6.43;3.50;;;;;;;;;;4990673;28;20217;-60
2022/06/17 00:49:21;;;;;;;6.10;2.97;;;;;;;;;;4995191;28;20221;-59
2022/06/17 00:51:53;;;;;;;6.07;3.20;;;;;;;;;;4993472;28;20249;-59
2022/06/17 00:54:23;;;;;;;6.53;3.22;;;;;;;;;;5009558;28;20205;-59
2022/06/17 00:56:49;;;;;;;5.90;3.40;;;;;;;;;;4998522;28;20224;-59
2022/06/17 00:59:14;;;;;;;5.03;3.38;;;;;;;;;;4984624;28;20266;-59
2022/06/17 01:01:43;;;;;;;7.47;3.58;;;;;;;;;;4984841;28;20236;-59
2022/06/17 01:04:10;;;;;;;6.10;3.40;;;;;;;;;;5007206;28;20696;-59
2022/06/17 01:06:36;;;;;;;6.57;3.22;;;;;;;;;;5013384;28;20229;-60
2022/06/17 01:11:49;;;;;;;6.53;3.42;;;;;;;;;;4993534;28;20247;-59
2022/06/17 01:14:15;;;;;;;8.18;3.30;;;;;;;;;;4978303;28;20214;-59
2022/06/17 01:16:40;;;;;;;5.50;3.17;;;;;;;;;;4991204;28;20712;-59
2022/06/17 01:19:21;;;;;;;5.03;3.10;;;;;;;;;;4984221;28;20217;-59
2022/06/17 01:22:00;;;;;;;4.22;3.08;;;;;;;;;;5017333;28;20243;-59
2022/06/17 01:24:25;;;;;;;5.70;3.45;;;;;;;;;;4997051;28;20213;-59
2022/06/17 01:26:51;;;;;;;6.90;3.40;;;;;;;;;;5000085;28;20692;-59
2022/06/17 01:29:16;;;;;;;5.50;3.20;;;;;;;;;;4998164;28;20213;-59
2022/06/17 01:31:42;;;;;;;5.75;3.25;;;;;;;;;;4977672;28;20225;-59
2022/06/17 01:34:11;;;;;;;7.47;3.38;;;;;;;;;;4999197;28;20229;-60
2022/06/17 01:36:36;;;;;;;6.35;3.20;;;;;;;;;;5010383;28;20891;-59
2022/06/17 01:39:01;;;;;;;6.82;3.45;;;;;;;;;;5017678;28;20212;-60
2022/06/17 01:41:28;;;;;;;5.03;3.40;;;;;;;;;;4997968;28;20205;-59
2022/06/17 01:43:54;;;;;;;6.88;3.42;;;;;;;;;;5009616;28;20658;-59
2022/06/17 01:46:20;;;;;;;5.88;3.53;;;;;;;;;;4998986;28;20205;-59
2022/06/17 01:48:48;;;;;;;4.18;2.95;;;;;;;;;;4998868;28;20220;-59
2022/06/17 01:51:13;;;;;;;4.93;3.20;;;;;;;;;;4986439;28;20295;-59
2022/06/17 01:53:41;;;;;;;5.53;3.10;;;;;;;;;;4978832;28;20842;-59
2022/06/17 01:56:08;;;;;;;4.43;3.10;;;;;;;;;;4992892;28;20230;-60
2022/06/17 01:58:36;;;;;;;7.10;3.40;;;;;;;;;;5004444;28;20212;-59
2022/06/17 02:01:02;;;;;;;7.38;3.30;;;;;;;;;;5015906;28;20240;-60
2022/06/17 02:03:29;;;;;;;7.47;3.42;;;;;;;;;;4993295;28;20282;-60
2022/06/17 02:05:57;;;;;;;7.70;3.95;;;;;;;;;;5005977;28;20226;-60
2022/06/17 02:08:22;;;;;;;6.97;3.58;;;;;;;;;;5008567;28;20220;-61
2022/06/17 02:10:49;;;;;;;8.55;4.38;;;;;;;;;;4991690;28;20224;-61
2022/06/17 02:13:14;;;;;;;7.25;3.70;;;;;;;;;;4998161;28;20224;-60
2022/06/17 02:15:40;;;;;;;7.88;3.78;;;;;;;;;;4987177;28;20221;-60
2022/06/17 02:18:05;;;;;;;6.68;3.90;;;;;;;;;;4989964;28;20228;-61
2022/06/17 02:20:31;;;;;;;7.15;4.22;;;;;;;;;;4991003;28;20415;-61
2022/06/17 02:22:56;;;;;;;8.43;4.32;;;;;;;;;;4979469;28;20213;-59
2022/06/17 02:25:24;;;;;;;6.10;4.15;;;;;;;;;;4988061;28;20273;-60
2022/06/17 02:27:51;;;;;;;9.10;4.00;;;;;;;;;;5013734;28;20212;-60
2022/06/17 02:30:16;;;;;;;8.02;3.97;;;;;;;;;;4999400;28;20217;-60
2022/06/17 02:32:41;;;;;;;7.95;3.70;;;;;;;;;;4997667;28;20220;-60
2022/06/17 02:35:26;;;;;;;5.22;3.60;;;;;;;;;;4998377;28;20316;-61
2022/06/17 02:37:52;;;;;;;8.27;4.20;;;;;;;;;;4998048;28;20251;-61
2022/06/17 02:40:28;;;;;;;6.30;4.40;;;;;;;;;;4990394;28;20304;-60
2022/06/17 02:42:53;;;;;;;6.38;4.35;;;;;;;;;;4994229;28;20282;-61
2022/06/17 02:45:20;;;;;;;8.48;4.80;;;;;;;;;;4976412;28;20217;-61
2022/06/17 02:47:45;;;;;;;9.23;4.40;;;;;;;;;;4982829;28;20217;-60
2022/06/17 02:50:13;;;;;;;9.02;4.25;;;;;;;;;;4998222;28;20291;-61
2022/06/17 02:52:39;;;;;;;7.22;4.25;;;;;;;;;;5008762;28;20209;-60
2022/06/17 02:55:06;;;;;;;7.30;4.18;;;;;;;;;;4992672;28;20323;-61
2022/06/17 02:57:32;;;;;;;7.10;4.22;;;;;;;;;;5010653;28;20221;-61
2022/06/17 03:00:11;;;;;;;6.88;4.15;;;;;;;;;;4995675;28;20218;-60
2022/06/17 03:02:38;;;;;;;6.35;4.18;;;;;;;;;;4985490;28;20239;-60
2022/06/17 03:05:09;;;;;;;8.15;4.70;;;;;;;;;;4975420;28;20224;-60
2022/06/17 03:07:34;;;;;;;6.70;4.10;;;;;;;;;;4995363;28;20219;-61
2022/06/17 03:10:00;;;;;;;7.80;4.43;;;;;;;;;;4998648;28;21144;-61
2022/06/17 03:12:26;;;;;;;6.80;4.13;;;;;;;;;;4982256;28;20227;-61
2022/06/17 03:14:55;;;;;;;8.45;4.28;;;;;;;;;;4998165;28;20221;-61
2022/06/17 03:17:21;;;;;;;15.27;4.40;;;;;;;;;;5004638;28;20213;-61
2022/06/17 03:19:46;;;;;;;9.52;4.43;;;;;;;;;;4988281;28;20595;-61
2022/06/17 03:22:12;;;;;;;7.47;4.43;;;;;;;;;;5000568;28;20299;-61
2022/06/17 03:24:44;;;;;;;7.43;4.88;;;;;;;;;;4986145;28;20262;-60
2022/06/17 03:27:12;;;;;;;7.82;4.72;;;;;;;;;;4993035;28;20223;-60
2022/06/17 03:29:38;;;;;;;6.38;4.57;;;;;;;;;;5008965;28;20214;-60
2022/06/17 03:32:05;;;;;;;9.80;5.10;;;;;;;;;;4986451;28;20217;-60
2022/06/17 03:34:36;;;;;;;7.75;4.68;;;;;;;;;;5002281;28;20215;-59
2022/06/17 03:37:03;;;;;;;8.70;4.75;;;;;;;;;;4997086;28;20336;-60
2022/06/17 03:39:34;;;;;;;6.70;4.70;;;;;;;;;;4999338;28;20217;-59
2022/06/17 03:42:03;;;;;;;6.60;5.28;;;;;;;;;;5007085;28;20228;-59
2022/06/17 03:44:31;;;;;;;9.25;4.90;;;;;;;;;;5001394;28;20972;-61
2022/06/17 03:46:59;;;;;;;16.65;5.35;;;;;;;;;;4992634;28;20228;-60
2022/06/17 03:49:25;;;;;;;6.57;4.65;;;;;;;;;;5006549;28;20219;-60
2022/06/17 03:51:51;;;;;;;76.45;8.52;;;;;;;;;;4975007;28;20236;-60
2022/06/17 03:54:17;;;;;;;6.78;4.40;;;;;;;;;;4994044;28;20205;-61
2022/06/17 03:56:43;;;;;;;7.10;4.65;;;;;;;;;;4988830;28;20700;-60
2022/06/17 03:59:09;;;;;;;7.20;4.57;;;;;;;;;;5016213;28;20718;-60
2022/06/17 04:01:40;;;;;;;7.40;5.22;;;;;;;;;;5015043;28;20224;-60
2022/06/17 04:04:09;;;;;;;9.20;4.75;;;;;;;;;;4981841;28;20212;-61
2022/06/17 04:06:36;;;;;;;9.80;4.10;;;;;;;;;;4995489;28;20224;-59
2022/06/17 04:09:03;;;;;;;8.90;4.50;;;;;;;;;;5011126;28;20640;-59
2022/06/17 04:11:30;;;;;;;7.28;4.20;;;;;;;;;;5008114;28;20215;-60
2022/06/17 04:13:56;;;;;;;6.13;4.40;;;;;;;;;;4986754;28;20900;-60
2022/06/17 04:16:31;;;;;;;24.05;5.75;;;;;;;;;;4992782;28;20225;-60
2022/06/17 04:19:01;;;;;;;9.05;4.50;;;;;;;;;;5020966;28;20274;-60
2022/06/17 04:21:27;;;;;;;10.35;4.15;;;;;;;;;;5009815;28;20287;-60
2022/06/17 04:23:52;;;;;;;7.20;4.35;;;;;;;;;;5009182;28;20307;-58
2022/06/17 04:26:21;;;;;;;8.32;4.00;;;;;;;;;;4990864;28;20688;-60
2022/06/17 04:28:58;;;;;;;6.32;4.30;;;;;;;;;;5006038;28;20421;-60
2022/06/17 04:31:26;;;;;;;7.72;4.30;;;;;;;;;;5017556;28;20204;-61
2022/06/17 04:33:52;;;;;;;7.30;4.40;;;;;;;;;;5014820;28;20229;-61
2022/06/17 04:36:22;;;;;;;9.90;5.00;;;;;;;;;;5005700;28;20242;-61
2022/06/17 04:38:47;;;;;;;8.77;4.55;;;;;;;;;;5020820;28;20263;-61
2022/06/17 04:41:13;;;;;;;11.35;5.45;;;;;;;;;;5003799;28;20213;-62
2022/06/17 04:43:40;;;;;;;6.60;4.78;;;;;;;;;;5013260;28;20208;-61
2022/06/17 04:46:12;;;;;;;7.80;4.97;;;;;;;;;;5011638;28;20201;-62
2022/06/17 04:48:38;;;;;;;11.50;5.22;;;;;;;;;;5014008;28;20715;-61
2022/06/17 04:51:03;;;;;;;8.52;5.15;;;;;;;;;;5013507;28;20212;-62
2022/06/17 04:53:28;;;;;;;52.90;8.70;;;;;;;;;;5009087;28;20220;-62
2022/06/17 04:55:54;;;;;;;8.10;5.00;;;;;;;;;;5012110;28;20282;-61
2022/06/17 04:58:20;;;;;;;10.30;5.30;;;;;;;;;;5013786;28;20292;-61
2022/06/17 05:00:46;;;;;;;7.32;4.32;;;;;;;;;;5012905;28;20228;-62
2022/06/17 05:03:11;;;;;;;7.07;4.72;;;;;;;;;;5013258;28;20220;-61
2022/06/17 05:05:37;;;;;;;7.43;5.18;;;;;;;;;;5013801;28;20671;-64
2022/06/17 05:08:03;;;;;;;8.52;5.43;;;;;;;;;;5011809;28;20224;-63
2022/06/17 05:10:32;;;;;;;8.30;5.45;;;;;;;;;;5012322;28;20235;-62
2022/06/17 05:12:57;;;;;;;7.88;5.03;;;;;;;;;;5011961;28;20288;-61
2022/06/17 05:15:23;;;;;;;8.55;5.32;;;;;;;;;;5012919;28;20639;-62
2022/06/17 05:17:48;;;;;;;8.73;5.80;;;;;;;;;;5012094;28;20255;-62
2022/06/17 05:20:14;;;;;;;8.77;5.22;;;;;;;;;;5011222;28;20207;-61
2022/06/17 05:22:41;;;;;;;9.00;5.60;;;;;;;;;;5012083;28;20208;-62
2022/06/17 05:25:11;;;;;;;11.68;6.00;;;;;;;;;;5007482;28;20613;-63
2022/06/17 05:27:36;;;;;;;11.68;6.30;;;;;;;;;;5010547;28;20216;-65
2022/06/17 05:30:01;;;;;;;17.15;6.63;;;;;;;;;;5005010;28;20216;-62
2022/06/17 05:32:27;;;;;;;23.40;7.60;;;;;;;;;;5007678;28;20208;-64
2022/06/17 05:34:52;;;;;;;26.20;7.30;;;;;;;;;;4995395;28;20209;-65
2022/06/17 05:37:17;;;;;;;11.48;7.07;;;;;;;;;;4998941;28;20205;-65
2022/06/17 05:39:43;;;;;;;14.60;7.15;;;;;;;;;;5013991;28;20204;-64
2022/06/17 05:42:10;;;;;;;10.70;6.80;;;;;;;;;;5007829;28;20228;-64
2022/06/17 05:44:35;;;;;;;9.77;7.57;;;;;;;;;;5006788;28;20687;-64
2022/06/17 05:47:00;;;;;;;9.05;7.15;;;;;;;;;;5012706;28;20220;-65
2022/06/17 05:49:26;;;;;;;12.48;7.90;;;;;;;;;;5003370;28;20220;-64
2022/06/17 05:51:51;;;;;;;12.75;9.40;;;;;;;;;;5013188;28;20231;-64
2022/06/17 05:54:16;;;;;;;17.08;9.43;;;;;;;;;;5012949;28;20217;-65
2022/06/17 05:56:42;;;;;;;16.92;8.75;;;;;;;;;;5012747;28;20220;-64
2022/06/17 05:59:07;;;;;;;21.98;9.40;;;;;;;;;;4987359;28;20705;-64
2022/06/17 06:01:32;;;;;;;13.60;8.95;;;;;;;;;;4993351;28;20221;-64
2022/06/17 06:03:58;;;;;;;13.48;9.90;;;;;;;;;;5004655;28;20216;-66
2022/06/17 06:06:23;;;;;;;14.27;9.30;;;;;;;;;;5009056;28;20307;-64
2022/06/17 06:08:48;;;;;;;15.45;9.68;;;;;;;;;;5007678;28;20646;-63
2022/06/17 06:11:14;;;;;;;15.48;8.77;;;;;;;;;;4992530;28;20213;-66
2022/06/17 06:13:40;;;;;;;13.07;8.77;;;;;;;;;;5005874;28;20209;-65
2022/06/17 06:16:05;;;;;;;16.33;8.55;;;;;;;;;;5011764;28;20255;-65
2022/06/17 06:18:31;;;;;;;17.52;9.07;;;;;;;;;;5011728;28;20572;-64
2022/06/17 06:20:57;;;;;;;13.30;7.47;;;;;;;;;;4999451;28;20213;-64
2022/06/17 06:23:22;;;;;;;18.60;9.10;;;;;;;;;;4993377;28;20210;-63
2022/06/17 06:25:47;;;;;;;10.18;8.05;;;;;;;;;;5013026;28;20221;-63
2022/06/17 06:28:15;;;;;;;10.60;8.15;;;;;;;;;;5010301;28;20213;-63
2022/06/17 06:30:40;;;;;;;11.65;7.60;;;;;;;;;;5023424;28;20244;-64
2022/06/17 06:33:06;;;;;;;13.63;8.40;;;;;;;;;;5009238;28;20244;-65
2022/06/17 06:35:33;;;;;;;10.90;8.15;;;;;;;;;;5012377;28;20251;-65
2022/06/17 06:37:58;;;;;;;11.18;8.02;;;;;;;;;;5011443;28;20204;-65
2022/06/17 06:40:23;;;;;;;10.45;6.65;;;;;;;;;;5012184;28;20291;-66
2022/06/17 06:42:49;;;;;;;11.35;8.00;;;;;;;;;;5001761;28;20223;-65
2022/06/17 06:45:16;;;;;;;12.10;7.50;;;;;;;;;;5010574;28;20334;-65
2022/06/17 06:47:42;;;;;;;12.02;7.72;;;;;;;;;;5010319;28;20219;-65
2022/06/17 06:50:10;;;;;;;11.88;8.05;;;;;;;;;;5000895;28;20212;-65
2022/06/17 06:52:35;;;;;;;11.00;7.80;;;;;;;;;;5007159;28;20205;-65
2022/06/17 06:55:00;;;;;;;10.63;6.82;;;;;;;;;;4992567;28;20228;-65
2022/06/17 06:57:26;;;;;;;11.50;6.57;;;;;;;;;;4992569;28;20205;-65
2022/06/17 06:59:51;;;;;;;10.23;6.13;;;;;;;;;;4991936;28;20237;-64
2022/06/17 07:02:16;;;;;;;11.73;4.70;;;;;;;;;;4991711;28;20225;-64
2022/06/17 07:04:41;;;;;;;10.48;4.65;;;;;;;;;;4998769;28;20209;-64
2022/06/17 07:07:07;;;;;;;10.82;4.45;;;;;;;;;;4991409;28;20213;-64
2022/06/17 07:09:32;;;;;;;9.80;4.40;;;;;;;;;;5000487;28;20566;-64
2022/06/17 07:11:57;;;;;;;8.10;4.05;;;;;;;;;;4992660;28;20224;-63
2022/06/17 07:14:23;;;;;;;12.77;4.53;;;;;;;;;;5005481;28;20291;-64
2022/06/17 07:16:48;;;;;;;7.95;3.65;;;;;;;;;;5011784;28;20323;-65
2022/06/17 07:19:15;;;;;;;6.68;3.70;;;;;;;;;;4997710;28;20221;-64
2022/06/17 07:21:40;;;;;;;8.15;4.03;;;;;;;;;;5006501;28;20197;-65
2022/06/17 07:24:06;;;;;;;8.48;3.72;;;;;;;;;;4999782;28;20263;-65
2022/06/17 07:26:32;;;;;;;6.63;3.38;;;;;;;;;;5011263;28;20274;-63
2022/06/17 07:28:57;;;;;;;8.73;3.75;;;;;;;;;;5000592;28;20217;-65
2022/06/17 07:31:22;;;;;;;7.97;3.95;;;;;;;;;;5009509;28;20656;-65
2022/06/17 07:33:48;;;;;;;8.25;3.88;;;;;;;;;;5002185;28;20217;-65
2022/06/17 07:41:41;;;;;;;7.15;3.60;;;;;;;;;;4990895;28;20267;-64
2022/06/17 07:44:06;;;;;;;6.65;3.30;;;;;;;;;;5000899;28;20209;-64
2022/06/17 07:46:33;;;;;;;7.38;3.42;;;;;;;;;;5011290;28;20674;-64
2022/06/17 07:48:58;;;;;;;8.75;3.38;;;;;;;;;;5010782;28;20262;-64
2022/06/17 07:51:24;;;;;;;6.72;2.70;;;;;;;;;;5011200;28;20596;-65
2022/06/17 07:53:49;;;;;;;7.57;3.45;;;;;;;;;;5011779;28;20690;-65
2022/06/17 07:56:15;;;;;;;7.78;3.17;;;;;;;;;;5010094;28;20687;-64
2022/06/17 07:58:41;;;;;;;6.70;3.17;;;;;;;;;;5011037;28;20258;-64
2022/06/17 08:01:06;;;;;;;6.20;3.00;;;;;;;;;;5010349;28;20731;-64
2022/06/17 08:03:31;;;;;;;7.53;2.70;;;;;;;;;;5010741;28;20254;-65
2022/06/17 08:05:59;;;;;;;5.88;3.40;;;;;;;;;;5014012;28;20296;-64
2022/06/17 08:08:25;;;;;;;6.90;2.60;;;;;;;;;;5014997;28;20220;-64
2022/06/17 08:10:51;;;;;;;5.28;2.30;;;;;;;;;;5014483;28;20686;-64
2022/06/17 08:13:16;;;;;;;8.25;2.53;;;;;;;;;;5014376;28;20747;-64
2022/06/17 08:15:42;;;;;;;5.38;2.30;;;;;;;;;;5014120;28;20304;-64
2022/06/17 08:18:07;;;;;;;5.43;2.25;;;;;;;;;;5014622;28;20350;-65
2022/06/17 08:20:33;;;;;;;5.25;2.45;;;;;;;;;;5015153;28;20687;-64
2022/06/17 08:22:58;;;;;;;7.03;2.40;;;;;;;;;;5014569;28;20217;-63
2022/06/17 08:25:24;;;;;;;5.88;2.58;;;;;;;;;;5014749;28;20220;-63
2022/06/17 08:27:50;;;;;;;8.90;2.47;;;;;;;;;;5014599;28;20212;-64
2022/06/17 08:30:16;;;;;;;8.52;2.50;;;;;;;;;;5013292;28;20232;-64
2022/06/17 08:32:51;;;;;;;6.53;2.35;;;;;;;;;;4995053;28;20206;-64
2022/06/17 08:35:18;;;;;;;5.60;2.22;;;;;;;;;;4994980;28;20224;-63
2022/06/17 08:37:44;;;;;;;9.20;2.58;;;;;;;;;;4994770;28;20213;-64
2022/06/17 08:40:16;;;;;;;7.78;2.30;;;;;;;;;;5009650;28;20210;-64
2022/06/17 08:42:42;;;;;;;7.20;2.40;;;;;;;;;;4994514;28;20291;-64
2022/06/17 08:45:14;;;;;;;8.52;2.85;;;;;;;;;;5011836;28;20278;-64
2022/06/17 08:47:43;;;;;;;6.20;2.50;;;;;;;;;;5014808;28;20228;-64
2022/06/17 08:50:26;;;;;;;6.50;2.90;;;;;;;;;;5012896;28;20223;-64
2022/06/17 08:53:02;;;;;;;8.02;2.92;;;;;;;;;;5012395;28;20262;-63
2022/06/17 08:55:33;;;;;;;5.68;2.50;;;;;;;;;;5013935;28;20220;-61
2022/06/17 08:58:00;;;;;;;6.40;2.80;;;;;;;;;;5012170;28;20214;-61
2022/06/17 09:00:28;;;;;;;9.15;3.35;;;;;;;;;;5013754;28;20695;-61
2022/06/17 09:02:59;;;;;;;8.07;2.60;;;;;;;;;;5013042;28;20282;-61
2022/06/17 09:05:30;;;;;;;9.45;2.33;;;;;;;;;;5011620;28;20685;-62
2022/06/17 09:08:06;;;;;;;7.43;2.90;;;;;;;;;;4996392;28;20217;-61
2022/06/17 09:10:40;;;;;;;9.57;3.20;;;;;;;;;;5013906;28;20212;-61
2022/06/17 09:13:12;;;;;;;5.15;2.63;;;;;;;;;;5011610;28;20304;-62
2022/06/17 09:15:42;;;;;;;4.00;2.30;;;;;;;;;;5013559;28;20691;-62
2022/06/17 09:18:12;;;;;;;5.20;2.78;;;;;;;;;;5011834;28;20220;-63
2022/06/17 09:20:42;;;;;;;5.55;2.95;;;;;;;;;;5011911;28;20235;-62
2022/06/17 09:23:07;;;;;;;7.20;2.50;;;;;;;;;;5013705;28;20242;-62
2022/06/17 09:25:38;;;;;;;8.30;2.70;;;;;;;;;;5012996;28;20209;-61
2022/06/17 09:28:03;;;;;;;8.10;3.08;;;;;;;;;;5012938;28;20208;-62
2022/06/17 09:30:32;;;;;;;6.15;2.65;;;;;;;;;;5012109;28;20209;-61
2022/06/17 09:33:11;;;;;;;5.70;2.90;;;;;;;;;;4993578;28;20296;-62
2022/06/17 09:35:39;;;;;;;5.88;2.80;;;;;;;;;;5001979;28;20304;-62
2022/06/17 09:38:13;;;;;;;5.40;2.70;;;;;;;;;;4993773;28;20236;-63
2022/06/17 09:40:39;;;;;;;8.93;3.22;;;;;;;;;;4993474;28;20664;-62
2022/06/17 09:43:05;;;;;;;6.20;2.90;;;;;;;;;;4992732;28;20240;-62
2022/06/17 09:45:33;;;;;;;9.10;3.47;;;;;;;;;;5013397;28;20283;-62
2022/06/17 09:48:03;;;;;;;8.80;3.00;;;;;;;;;;5011143;28;20216;-62
2022/06/17 09:50:32;;;;;;;8.50;2.92;;;;;;;;;;5013484;28;20697;-62
2022/06/17 09:52:58;;;;;;;7.13;2.58;;;;;;;;;;5012506;28;20236;-63
2022/06/17 09:55:26;;;;;;;10.02;2.65;;;;;;;;;;5004028;28;20236;-62
2022/06/17 09:57:58;;;;;;;5.82;2.80;;;;;;;;;;5001612;28;20205;-62
2022/06/17 10:00:25;;;;;;;7.65;2.58;;;;;;;;;;4999570;28;20206;-62
2022/06/17 10:02:53;;;;;;;5.68;2.70;;;;;;;;;;4992734;28;20213;-62
2022/06/17 10:05:24;;;;;;;6.38;2.70;;;;;;;;;;4993241;28;20277;-62
2022/06/17 10:07:51;;;;;;;9.73;3.03;;;;;;;;;;4992174;28;20244;-63
2022/06/17 10:10:25;;;;;;;5.82;2.63;;;;;;;;;;4991014;28;20312;-64
2022/06/17 10:12:55;;;;;;;7.57;3.13;;;;;;;;;;4992043;28;20219;-64
2022/06/17 10:15:26;;;;;;;8.45;2.80;;;;;;;;;;4992514;28;20236;-61
2022/06/17 10:20:48;;;;;;;6.85;3.10;;;;;;;;;;4991982;28;20308;-61
2022/06/17 10:23:13;;;;;;;8.27;3.25;;;;;;;;;;4991580;28;20344;-62
2022/06/17 10:25:39;;;;;;;6.85;2.70;;;;;;;;;;4994737;28;20308;-61
2022/06/17 10:28:10;;;;;;;5.88;2.55;;;;;;;;;;4991925;28;20216;-62
2022/06/17 10:30:40;;;;;;;5.10;2.30;;;;;;;;;;4991999;28;20215;-62
2022/06/17 10:33:05;;;;;;;8.98;2.65;;;;;;;;;;5007374;28;20216;-62
2022/06/17 10:35:32;;;;;;;6.40;2.10;;;;;;;;;;5010365;28;20243;-62
2022/06/17 10:37:59;;;;;;;7.25;2.60;;;;;;;;;;5010566;28;20212;-62
2022/06/17 10:40:25;;;;;;;6.32;2.30;;;;;;;;;;5011112;28;20209;-62
2022/06/17 10:42:50;;;;;;;4.85;2.00;;;;;;;;;;5012838;28;20295;-62
2022/06/17 10:45:16;;;;;;;6.03;2.30;;;;;;;;;;4993289;28;20225;-62
2022/06/17 10:47:45;;;;;;;6.07;2.50;;;;;;;;;;4991204;28;20236;-62
2022/06/17 10:50:24;;;;;;;7.30;2.33;;;;;;;;;;4992091;28;20300;-62
2022/06/17 10:52:52;;;;;;;7.13;2.42;;;;;;;;;;4993089;28;20205;-61
2022/06/17 10:55:19;;;;;;;6.80;2.28;;;;;;;;;;4991159;28;20221;-62
2022/06/17 10:58:03;;;;;;;7.65;2.67;;;;;;;;;;4992250;28;20584;-62
2022/06/17 11:00:28;;;;;;;6.95;2.65;;;;;;;;;;4992048;28;20220;-62
2022/06/17 11:02:54;;;;;;;5.43;2.40;;;;;;;;;;4992311;28;20217;-62
2022/06/17 11:05:31;;;;;;;6.43;2.40;;;;;;;;;;4991438;28;20223;-62
2022/06/17 11:07:56;;;;;;;6.43;2.28;;;;;;;;;;4992831;28;20305;-61
2022/06/17 11:10:23;;;;;;;6.55;2.65;;;;;;;;;;4990803;28;20615;-61
2022/06/17 11:13:02;;;;;;;5.55;2.67;;;;;;;;;;4991744;28;20213;-61
2022/06/17 11:15:29;;;;;;;3.95;2.10;;;;;;;;;;4998726;28;20279;-61
2022/06/17 11:17:55;;;;;;;8.90;2.40;;;;;;;;;;4992398;28;20717;-61
2022/06/17 11:20:23;;;;;;;7.07;2.30;;;;;;;;;;4989934;28;20213;-62
2022/06/17 11:22:50;;;;;;;5.30;2.30;;;;;;;;;;4992689;28;20300;-61
2022/06/17 11:25:22;;;;;;;7.60;2.22;;;;;;;;;;4990425;28;20251;-61
2022/06/17 11:27:55;;;;;;;5.95;1.92;;;;;;;;;;4991610;28;20247;-61
2022/06/17 11:30:22;;;;;;;4.63;2.28;;;;;;;;;;4991594;28;20237;-61
2022/06/17 11:32:47;;;;;;;5.95;1.90;;;;;;;;;;5005951;28;20221;-61
2022/06/17 11:35:16;;;;;;;5.45;1.65;;;;;;;;;;5010062;28;20219;-61
2022/06/17 11:37:42;;;;;;;4.18;2.10;;;;;;;;;;5011755;28;20208;-61
2022/06/17 11:40:11;;;;;;;5.15;2.10;;;;;;;;;;5010195;28;20209;-62
2022/06/17 11:42:46;;;;;;;3.40;1.80;;;;;;;;;;5011611;28;20646;-61
2022/06/17 11:45:13;;;;;;;6.43;1.90;;;;;;;;;;4992522;28;20217;-61
2022/06/17 11:47:42;;;;;;;6.72;1.90;;;;;;;;;;4990000;28;20661;-61
2022/06/17 11:50:16;;;;;;;4.90;1.85;;;;;;;;;;4991537;28;20753;-61
2022/06/17 11:52:42;;;;;;;5.90;1.70;;;;;;;;;;4991798;28;20217;-61
2022/06/17 11:55:09;;;;;;;4.47;1.58;;;;;;;;;;4990458;28;20212;-61
2022/06/17 11:57:35;;;;;;;6.65;2.00;;;;;;;;;;4990906;28;20244;-61
2022/06/17 12:00:04;;;;;;;3.58;1.70;;;;;;;;;;4991327;28;20224;-61
2022/06/17 12:02:29;;;;;;;3.95;1.63;;;;;;;;;;4991138;28;20281;-61
2022/06/17 12:05:08;;;;;;;6.22;1.70;;;;;;;;;;4991782;28;20681;-61
2022/06/17 12:07:52;;;;;;;8.43;1.80;;;;;;;;;;4998313;28;20209;-61
2022/06/17 12:10:36;;;;;;;5.93;2.22;;;;;;;;;;4991259;28;20722;-61
2022/06/17 12:13:03;;;;;;;3.78;1.70;;;;;;;;;;4991549;28;20708;-61
2022/06/17 12:15:33;;;;;;;5.70;2.00;;;;;;;;;;4973240;28;20229;-61
2022/06/17 12:17:59;;;;;;;6.50;2.10;;;;;;;;;;4990518;28;20213;-61
2022/06/17 12:20:30;;;;;;;7.28;2.00;;;;;;;;;;4989864;28;20268;-61
2022/06/17 12:22:58;;;;;;;3.25;1.60;;;;;;;;;;4991043;28;20205;-61
2022/06/17 12:25:25;;;;;;;5.65;2.45;;;;;;;;;;4991470;28;20209;-61
2022/06/17 12:27:52;;;;;;;7.07;1.98;;;;;;;;;;4992426;28;20217;-61
2022/06/17 12:30:20;;;;;;;3.70;1.98;;;;;;;;;;4988901;28;20255;-61
2022/06/17 12:32:46;;;;;;;5.70;2.10;;;;;;;;;;5004636;28;20215;-61
2022/06/17 12:35:13;;;;;;;6.93;2.40;;;;;;;;;;5010903;28;20303;-61
2022/06/17 12:37:39;;;;;;;7.50;2.22;;;;;;;;;;5010887;28;20217;-61
2022/06/17 12:40:06;;;;;;;6.18;2.55;;;;;;;;;;5010865;28;20212;-61
2022/06/17 12:42:34;;;;;;;7.65;2.45;;;;;;;;;;5010966;28;20213;-61
2022/06/17 12:45:00;;;;;;;8.13;2.65;;;;;;;;;;4994239;28;20245;-61
2022/06/17 12:47:40;;;;;;;5.55;2.13;;;;;;;;;;4991019;28;20245;-61
2022/06/17 12:55:54;;;;;;;7.97;2.78;;;;;;;;;;5001427;28;20231;-61
2022/06/17 12:58:25;;;;;;;6.10;2.95;;;;;;;;;;4994179;28;20267;-61
2022/06/17 13:00:52;;;;;;;4.45;2.50;;;;;;;;;;4994919;28;20237;-61
2022/06/17 13:03:22;;;;;;;4.55;2.30;;;;;;;;;;4994556;28;20687;-61
2022/06/17 13:05:47;;;;;;;6.43;2.70;;;;;;;;;;4993974;28;20247;-61
2022/06/17 13:08:20;;;;;;;6.70;2.92;;;;;;;;;;4994348;28;20580;-61
2022/06/17 13:10:55;;;;;;;8.43;3.30;;;;;;;;;;4993475;28;20213;-61
2022/06/17 13:13:20;;;;;;;5.32;2.90;;;;;;;;;;4992633;28;20221;-61
2022/06/17 13:15:49;;;;;;;3.83;2.35;;;;;;;;;;4994639;28;20240;-61
2022/06/17 13:18:37;;;;;;;5.50;2.83;;;;;;;;;;4992255;28;20210;-61
2022/06/17 13:21:05;;;;;;;4.18;2.63;;;;;;;;;;4992788;28;20213;-62
2022/06/17 13:23:34;;;;;;;5.57;3.03;;;;;;;;;;4994770;28;20216;-61
2022/06/17 13:26:04;;;;;;;6.07;2.60;;;;;;;;;;5008029;28;20212;-61
2022/06/17 13:28:33;;;;;;;3.92;2.15;;;;;;;;;;5013017;28;20228;-61
2022/06/17 13:31:01;;;;;;;5.50;3.05;;;;;;;;;;5013395;28;20259;-61
2022/06/17 13:33:35;;;;;;;5.95;2.92;;;;;;;;;;5011518;28;20212;-61
2022/06/17 13:36:02;;;;;;;6.03;2.40;;;;;;;;;;5012863;28;20699;-61
2022/06/17 13:38:29;;;;;;;5.80;2.67;;;;;;;;;;5008904;28;20601;-62
2022/06/17 13:40:58;;;;;;;6.22;2.42;;;;;;;;;;5000409;28;20216;-63
2022/06/17 13:43:25;;;;;;;6.18;2.85;;;;;;;;;;5004448;28;20209;-63
2022/06/17 13:45:56;;;;;;;6.13;3.17;;;;;;;;;;5003819;28;20256;-61
2022/06/17 13:48:28;;;;;;;8.35;3.28;;;;;;;;;;5008202;28;20205;-62
2022/06/17 13:50:54;;;;;;;5.00;2.67;;;;;;;;;;4994087;28;20225;-61
2022/06/17 13:53:24;;;;;;;6.35;2.95;;;;;;;;;;4992830;28;20217;-61
2022/06/17 13:55:53;;;;;;;6.85;2.75;;;;;;;;;;4993931;28;20231;-61
2022/06/17 13:58:19;;;;;;;4.25;2.25;;;;;;;;;;4993148;28;20209;-60
2022/06/17 14:00:46;;;;;;;6.93;2.65;;;;;;;;;;4992751;28;20225;-60
2022/06/17 14:03:12;;;;;;;4.55;2.47;;;;;;;;;;4992366;28;20583;-61
2022/06/17 14:05:38;;;;;;;7.13;3.40;;;;;;;;;;4993878;28;20216;-60
2022/06/17 14:08:05;;;;;;;7.00;3.15;;;;;;;;;;5007605;28;20220;-61
2022/06/17 14:10:37;;;;;;;7.00;2.40;;;;;;;;;;4993500;28;20209;-61
2022/06/17 14:13:16;;;;;;;4.95;2.88;;;;;;;;;;4992962;28;20279;-61
2022/06/17 14:15:46;;;;;;;5.85;3.00;;;;;;;;;;4993059;28;20225;-60
2022/06/17 14:18:19;;;;;;;7.35;3.95;;;;;;;;;;4993368;28;20766;-60
2022/06/17 14:20:45;;;;;;;7.70;2.88;;;;;;;;;;4993382;28;20300;-60
2022/06/17 14:23:10;;;;;;;6.45;2.47;;;;;;;;;;5007117;28;20205;-60
2022/06/17 14:25:44;;;;;;;7.55;2.45;;;;;;;;;;4993253;28;20217;-61
2022/06/17 14:28:29;;;;;;;5.88;2.40;;;;;;;;;;4993019;28;20210;-60
2022/06/17 14:31:11;;;;;;;6.93;2.30;;;;;;;;;;5008029;28;20589;-60
2022/06/17 14:33:40;;;;;;;6.63;2.13;;;;;;;;;;5011163;28;20210;-61
2022/06/17 14:36:07;;;;;;;5.85;2.25;;;;;;;;;;5010575;28;20228;-61
2022/06/17 14:38:34;;;;;;;4.82;2.38;;;;;;;;;;4993296;28;20288;-61
2022/06/17 14:43:48;;;;;;;7.40;2.80;;;;;;;;;;4991529;28;20268;-62
2022/06/17 14:46:14;;;;;;;5.72;2.40;;;;;;;;;;4992511;28;20620;-62
2022/06/17 14:48:43;;;;;;;4.57;1.98;;;;;;;;;;4991420;28;20213;-61
2022/06/17 14:51:30;;;;;;;6.28;1.92;;;;;;;;;;4991830;28;20244;-61
2022/06/17 14:53:56;;;;;;;8.23;2.67;;;;;;;;;;4993041;28;20225;-62
2022/06/17 14:56:22;;;;;;;4.40;1.77;;;;;;;;;;4990711;28;20237;-62
2022/06/17 14:58:53;;;;;;;3.35;1.50;;;;;;;;;;4991351;28;20229;-62
2022/06/17 15:01:19;;;;;;;4.53;1.83;;;;;;;;;;4985239;28;20229;-61
2022/06/17 15:03:46;;;;;;;5.57;1.70;;;;;;;;;;4986880;28;20225;-61